createdAt,value
2018-06-22T00:00:51.111Z,1.10
2018-06-22T00:03:18.918Z,1.73
2018-06-22T00:05:47.002Z,1.43
2018-06-22T00:08:14.993Z,1.20
2018-06-22T00:10:43.019Z,1.50
2018-06-22T00:13:11.059Z,2.23
2018-06-22T00:15:39.082Z,1.30
2018-06-22T00:18:07.127Z,1.20
2018-06-22T00:20:35.171Z,1.27
2018-06-22T00:23:03.174Z,1.50
2018-06-22T00:25:31.211Z,1.40
2018-06-22T00:27:59.218Z,1.10
2018-06-22T00:30:27.239Z,1.50
2018-06-22T00:32:55.255Z,1.70
2018-06-22T00:35:23.308Z,1.23
2018-06-22T00:37:51.338Z,1.13
2018-06-22T00:40:19.162Z,1.10
2018-06-22T00:42:47.193Z,1.30
2018-06-22T00:45:15.202Z,1.30
2018-06-22T00:47:43.218Z,1.60
2018-06-22T00:50:11.267Z,1.50
2018-06-22T00:52:39.303Z,1.30
2018-06-22T00:55:07.328Z,1.63
2018-06-22T00:57:35.370Z,1.33
2018-06-22T01:00:03.390Z,1.33
2018-06-22T01:02:31.432Z,1.30
2018-06-22T01:04:59.499Z,1.27
2018-06-22T01:07:27.555Z,1.60
2018-06-22T01:09:55.588Z,1.77
2018-06-22T01:12:23.614Z,1.40
2018-06-22T01:14:51.658Z,1.63
2018-06-22T01:17:19.690Z,1.97
2018-06-22T01:19:47.719Z,1.63
2018-06-22T01:22:15.817Z,1.40
2018-06-22T01:24:43.783Z,1.77
2018-06-22T01:27:11.850Z,1.47
2018-06-22T01:29:39.880Z,1.23
2018-06-22T01:32:07.927Z,1.90
2018-06-22T01:34:35.966Z,1.33
2018-06-22T01:39:31.395Z,1.43
2018-06-22T01:41:59.431Z,1.30
2018-06-22T01:44:27.466Z,1.67
2018-06-22T01:46:55.514Z,1.70
2018-06-22T01:49:23.539Z,1.60
2018-06-22T01:51:51.582Z,1.60
2018-06-22T01:54:19.609Z,1.80
2018-06-22T01:56:47.651Z,1.30
2018-06-22T01:59:15.709Z,2.00
2018-06-22T02:01:43.746Z,1.60
2018-06-22T02:04:11.779Z,1.60
2018-06-22T02:06:39.806Z,1.40
2018-06-22T02:09:08.331Z,1.60
2018-06-22T02:11:36.374Z,1.90
2018-06-22T02:14:04.734Z,2.07
2018-06-22T02:16:32.754Z,1.87
2018-06-22T02:26:22.975Z,1.70
2018-06-22T02:38:40.818Z,1.80
2018-06-22T02:41:08.864Z,2.20
2018-06-22T02:43:36.891Z,1.80
2018-06-22T02:46:04.992Z,2.00
2018-06-22T02:48:33.238Z,1.70
2018-06-22T02:51:01.259Z,1.60
2018-06-22T02:53:29.447Z,1.55
2018-06-22T02:55:57.598Z,1.90
2018-06-22T02:58:25.622Z,1.50
2018-06-22T03:03:21.189Z,1.60
2018-06-22T03:05:49.014Z,2.00
2018-06-22T03:08:17.174Z,1.70
2018-06-22T03:10:45.214Z,1.37
2018-06-22T03:13:13.260Z,1.57
2018-06-22T03:15:41.296Z,2.07
2018-06-22T03:18:09.117Z,1.80
2018-06-22T03:20:37.139Z,1.60
2018-06-22T03:23:05.167Z,2.50
2018-06-22T03:25:33.187Z,2.03
2018-06-22T03:30:28.561Z,2.53
2018-06-22T03:32:56.574Z,1.73
2018-06-22T03:35:24.579Z,2.10
2018-06-22T03:37:52.607Z,1.87
2018-06-22T03:40:20.615Z,1.80
2018-06-22T03:42:48.630Z,1.87
2018-06-22T03:47:44.023Z,1.97
2018-06-22T03:50:12.046Z,1.90
2018-06-22T03:55:07.407Z,1.83
2018-06-22T03:57:35.431Z,1.83
2018-06-22T04:00:03.464Z,1.70
2018-06-22T04:04:58.863Z,2.03
2018-06-22T04:12:21.595Z,2.23
2018-06-22T04:22:11.754Z,2.23
2018-06-22T04:27:07.141Z,2.60
2018-06-22T04:36:57.252Z,2.10
2018-06-22T04:41:52.410Z,1.93
2018-06-22T04:49:15.011Z,1.77
2018-06-22T04:54:10.411Z,2.10
2018-06-22T05:04:01.306Z,1.80
2018-06-22T05:16:19.105Z,2.07
2018-06-22T06:05:27.836Z,2.03
2018-06-22T06:07:55.883Z,1.87
2018-06-22T06:10:23.923Z,1.50
2018-06-22T06:12:51.950Z,2.00
2018-06-22T06:15:19.998Z,1.77
2018-06-22T06:17:48.196Z,1.90
2018-06-22T06:20:16.237Z,1.53
2018-06-22T06:22:44.259Z,1.80
2018-06-22T06:25:12.084Z,1.70
2018-06-22T06:27:40.115Z,1.73
2018-06-22T06:30:08.147Z,1.40
2018-06-22T06:32:36.167Z,1.80
2018-06-22T06:35:03.982Z,1.37
2018-06-22T06:37:32.014Z,1.73
2018-06-22T06:40:00.049Z,1.60
2018-06-22T06:42:28.067Z,1.80
2018-06-22T06:44:56.102Z,1.67
2018-06-22T06:49:51.509Z,1.40
2018-06-22T06:52:19.523Z,1.63
2018-06-22T06:54:47.559Z,1.90
2018-06-22T06:57:15.584Z,1.40
2018-06-22T07:12:00.254Z,1.30
2018-06-22T07:19:23.014Z,1.33
2018-06-22T07:39:04.264Z,0.90
2018-06-22T07:41:32.291Z,1.90
2018-06-22T07:58:45.317Z,1.30
2018-06-22T08:06:08.190Z,1.20
2018-06-22T08:25:47.555Z,1.20
2018-06-22T08:28:15.574Z,1.40
2018-06-22T08:38:05.888Z,1.20
2018-06-22T08:43:01.285Z,1.13
2018-06-22T08:47:56.698Z,1.00
2018-06-22T08:50:24.742Z,1.10
2018-06-22T08:52:52.798Z,0.90
2018-06-22T08:57:48.188Z,1.10
2018-06-22T09:17:28.662Z,1.10
2018-06-22T09:22:24.062Z,3.23
2018-06-22T09:54:22.950Z,1.37
2018-06-22T09:56:51.188Z,1.10
2018-06-22T10:04:14.008Z,1.00
2018-06-22T10:38:39.260Z,1.00
2018-06-22T10:50:57.060Z,0.97
2018-06-22T11:13:05.003Z,1.10
2018-06-22T11:37:39.630Z,1.35
2018-06-22T11:40:07.479Z,1.00
2018-06-22T11:42:35.495Z,1.10
2018-06-22T11:59:47.775Z,1.40
2018-06-22T12:02:15.836Z,1.20
2018-06-22T12:07:11.227Z,1.40
2018-06-22T12:19:28.765Z,1.03
2018-06-22T12:29:18.666Z,1.00
2018-06-22T12:34:14.087Z,1.10
2018-06-22T12:39:11.446Z,1.20
2018-06-22T12:46:34.804Z,1.40
2018-06-22T12:56:24.893Z,1.00
2018-06-22T13:06:14.859Z,1.00
2018-06-22T13:08:42.895Z,0.90
2018-06-22T13:16:06.105Z,1.17
2018-06-22T13:18:33.918Z,1.37
2018-06-22T13:23:29.098Z,1.10
2018-06-22T13:28:24.502Z,1.03
2018-06-22T13:30:52.556Z,0.90
2018-06-22T13:35:47.750Z,0.97
2018-06-22T13:43:10.514Z,1.10
2018-06-22T13:45:38.923Z,1.07
2018-06-22T13:50:34.309Z,1.00
2018-06-22T14:00:24.446Z,1.13
2018-06-22T14:07:52.806Z,0.90
2018-06-22T14:25:04.826Z,1.00
2018-06-22T14:34:54.778Z,1.35
2018-06-22T14:37:22.585Z,0.80
2018-06-22T14:39:50.628Z,1.03
2018-06-22T14:42:18.634Z,0.90
2018-06-22T14:44:46.441Z,0.90
2018-06-22T14:47:14.476Z,1.00
2018-06-22T14:57:15.779Z,1.00
2018-06-22T14:59:49.214Z,0.80
2018-06-22T15:04:55.598Z,0.70
2018-06-22T15:19:46.138Z,0.60
2018-06-22T15:22:14.406Z,0.97
2018-06-22T15:24:42.435Z,0.70
2018-06-22T15:32:06.079Z,1.00
2018-06-22T15:37:12.350Z,1.17
2018-06-22T15:42:18.902Z,1.00
2018-06-22T15:44:52.312Z,1.20
2018-06-22T15:49:58.646Z,0.90
2018-06-22T15:57:28.702Z,1.43
2018-06-22T15:59:56.966Z,0.70
2018-06-22T16:04:57.725Z,0.90
2018-06-22T16:27:46.198Z,1.20
2018-06-22T16:42:31.087Z,1.20
2018-06-22T16:44:59.107Z,1.23
2018-06-22T16:47:27.129Z,1.47
2018-06-22T16:49:55.163Z,1.13
2018-06-22T16:52:23.231Z,1.00
2018-06-22T17:04:40.562Z,1.40
2018-06-22T17:07:14.287Z,0.90
2018-06-22T17:17:26.520Z,1.20
2018-06-22T17:29:44.026Z,0.90
2018-06-22T17:34:39.415Z,1.15
2018-06-22T17:37:07.434Z,1.13
2018-06-22T17:39:35.453Z,1.05
2018-06-22T17:44:30.850Z,1.53
2018-06-22T17:46:58.878Z,1.67
2018-06-22T17:49:26.801Z,1.10
2018-06-22T17:56:52.283Z,1.37
2018-06-22T18:01:58.672Z,1.60
2018-06-22T19:21:02.439Z,1.50
2018-06-22T19:23:30.452Z,1.37
2018-06-22T19:25:58.458Z,1.40
2018-06-22T19:40:43.291Z,1.20
2018-06-22T19:48:21.680Z,1.67
2018-06-22T19:55:56.014Z,1.90
2018-06-22T19:58:24.043Z,1.57
2018-06-22T20:10:41.803Z,1.73
2018-06-22T20:13:09.831Z,1.80
2018-06-22T20:18:05.382Z,1.50
2018-06-22T20:20:33.437Z,1.70
2018-06-22T20:23:01.467Z,1.77
2018-06-22T20:25:34.955Z,1.90
2018-06-22T20:28:02.999Z,2.00
2018-06-22T20:30:31.159Z,1.93
2018-06-22T20:32:59.186Z,1.90
2018-06-22T20:35:32.743Z,1.63
2018-06-22T20:38:06.241Z,1.60
2018-06-22T20:40:39.739Z,1.77
2018-06-22T20:43:13.187Z,2.10
2018-06-22T20:45:45.818Z,1.60
2018-06-22T20:48:19.393Z,1.80
2018-06-22T20:50:47.343Z,1.50
2018-06-22T20:53:15.367Z,1.43
2018-06-22T20:55:43.436Z,1.50
2018-06-22T20:58:11.517Z,1.63
2018-06-22T21:00:39.546Z,1.53
2018-06-22T21:03:07.582Z,1.60
2018-06-22T21:05:35.418Z,1.43
2018-06-22T21:08:03.502Z,1.80
2018-06-22T21:10:31.544Z,1.60
2018-06-22T21:12:59.652Z,1.60
2018-06-22T21:15:27.586Z,1.77
2018-06-22T21:17:55.611Z,1.80
2018-06-22T21:20:23.622Z,1.70
2018-06-22T21:22:51.654Z,1.67
2018-06-22T21:25:19.679Z,1.67
2018-06-22T21:27:53.124Z,1.37
2018-06-22T21:30:26.514Z,1.90
2018-06-22T21:33:00.127Z,1.90
2018-06-22T21:45:28.882Z,1.80
2018-06-22T22:19:56.046Z,1.80
2018-06-22T22:22:24.076Z,1.90
2018-06-22T22:24:52.093Z,2.43
2018-06-22T22:27:20.118Z,2.13
2018-06-22T22:29:48.143Z,2.50
2018-06-22T22:32:16.175Z,1.67
2018-06-22T22:34:44.205Z,1.83
2018-06-22T22:37:12.014Z,1.70
2018-06-22T22:39:40.058Z,2.10
2018-06-22T22:42:08.074Z,2.17
2018-06-22T22:44:36.126Z,2.20
2018-06-22T22:47:04.199Z,2.20
2018-06-22T22:49:32.218Z,2.07
2018-06-22T22:52:00.027Z,2.13
2018-06-22T22:54:28.055Z,2.23
2018-06-22T22:56:56.074Z,2.30
2018-06-22T22:59:24.099Z,2.27
2018-06-22T23:01:52.151Z,2.00
2018-06-22T23:04:20.200Z,2.33
2018-06-22T23:06:48.199Z,2.27
2018-06-22T23:28:55.206Z,2.07
2018-06-22T23:31:23.236Z,2.30
2018-06-22T23:33:51.246Z,2.13
2018-06-22T23:36:19.287Z,2.67
2018-06-22T23:38:47.314Z,2.30
2018-06-22T23:41:15.354Z,2.23
2018-06-22T23:43:43.386Z,2.50
2018-06-22T23:46:11.423Z,2.10
2018-06-22T23:48:39.463Z,2.43
2018-06-22T23:51:07.590Z,2.00
2018-06-22T23:53:35.394Z,2.47
2018-06-22T23:56:03.437Z,1.90
2018-06-22T23:58:31.471Z,2.27
